KLNN/LNN METAR and TAF weather

Enter ICAO airport designator
Station Type Date Time Source
KLNN METAR 2022/05/25 00:35 UTC NOAA

KLNN 250035Z AUTO 06003KT 10SM CLR 17/06 A3020 RMK AO1 T01670055


Station Type Date Time Source
KLNN Decoded METAR 2022/05/25 00:35 UTC NOAA

Willoughby, OH, United States (KLNN) 41-41N 081-23W
May 24, 2022 - 08:35 PM EDT / 2022.05.25 0035 UTC
Wind: from the ENE (060 degrees) at 3 MPH (3 KT):0
Visibility: 10 mile(s):0
Sky conditions: clear
Temperature: 62.1 F (16.7 C)
Dew Point: 41.9 F (5.5 C)
Relative Humidity: 47%
Pressure (altimeter): 30.2 in. Hg (1022 hPa)
ob: KLNN 250035Z AUTO 06003KT 10SM CLR 17/06 A3020 RMK AO1 T01670055
cycle: 0

Station Type Date Time Source
KLNN TAF UTC NOAA

Error!

Example: see airport list